Time;durP1;ratioP1;P1;durP2;ratioP2;P2;SDS_P1;SDS_P2;PMS_P1;PMS_P2;Temp;Humidity;BMP_temperature;BMP_pressure;BME280_temperature;BME280_humidity;BME280_pressure;Samples;Min_cycle;Max_cycle;Signal;HPM_P1;HPM_P2
2022/06/14 00:02:54;;;;;;;5.85;2.90;;;12.90;99.90;;;12.68;94.08;97809.13;5013008;28;20193;-44
2022/06/14 00:05:19;;;;;;;6.07;2.95;;;12.90;99.90;;;12.57;94.46;97789.22;5011122;28;20054;-44
2022/06/14 00:07:45;;;;;;;4.95;2.90;;;12.90;99.90;;;12.43;94.82;97775.66;5007406;28;20136;-47
2022/06/14 00:10:11;;;;;;;6.15;2.67;;;12.80;99.90;;;12.54;94.91;97796.41;5002269;28;20064;-44
2022/06/14 00:12:37;;;;;;;3.70;2.60;;;12.80;99.90;;;12.53;95.27;97800.84;5008411;28;20130;-43
2022/06/14 00:15:04;;;;;;;6.30;2.88;;;12.80;99.90;;;12.51;96.40;97796.53;5007898;28;20029;-43
2022/06/14 00:17:30;;;;;;;4.65;2.85;;;12.70;99.90;;;12.46;96.44;97803.78;5009489;28;20112;-44
2022/06/14 00:19:55;;;;;;;10.27;2.78;;;12.70;99.90;;;12.45;95.91;97794.13;5010970;28;20025;-43
2022/06/14 00:22:21;;;;;;;4.72;2.53;;;12.70;99.90;;;12.44;95.92;97803.00;5005506;28;20287;-47
2022/06/14 00:24:47;;;;;;;4.93;2.80;;;12.70;99.90;;;12.40;96.26;97802.25;4999738;28;20037;-47
2022/06/14 00:27:13;;;;;;;4.82;2.75;;;12.70;99.90;;;12.38;95.94;97799.66;5008047;28;20069;-43
2022/06/14 00:29:38;;;;;;;5.47;2.92;;;12.60;99.90;;;12.31;96.07;97786.69;5003240;28;20083;-43
2022/06/14 00:32:05;;;;;;;4.93;2.72;;;12.60;99.90;;;12.35;95.97;97790.97;5007377;28;20045;-43
2022/06/14 00:34:30;;;;;;;7.03;3.17;;;12.60;99.90;;;12.33;95.62;97793.69;5012151;28;20517;-43
2022/06/14 00:36:56;;;;;;;4.30;2.70;;;12.60;99.90;;;12.30;96.19;97779.69;5012140;28;20038;-44
2022/06/14 00:39:23;;;;;;;5.05;2.50;;;12.60;99.90;;;12.31;96.07;97784.06;5009201;28;20507;-44
2022/06/14 00:41:55;;;;;;;5.28;2.85;;;12.60;99.90;;;12.29;95.95;97789.44;5004872;28;20121;-44
2022/06/14 00:44:26;;;;;;;6.93;2.90;;;12.50;99.90;;;12.21;96.32;97783.56;5013998;28;20036;-43
2022/06/14 00:47:07;;;;;;;4.63;2.80;;;12.50;99.90;;;12.25;96.49;97794.88;5010594;28;20037;-43
2022/06/14 00:49:51;;;;;;;7.32;3.20;;;12.50;99.90;;;12.19;97.00;97785.41;5006432;28;20045;-43
2022/06/14 00:52:39;;;;;;;8.18;2.83;;;12.50;99.90;;;12.15;97.80;97787.28;5008375;28;20037;-44
2022/06/14 00:55:20;;;;;;;8.02;3.22;;;12.40;99.90;;;12.14;98.01;97779.41;5012383;28;20549;-44
2022/06/14 00:57:53;;;;;;;5.95;2.80;;;12.40;99.90;;;12.10;98.27;97786.59;5007372;28;20492;-43
2022/06/14 01:00:27;;;;;;;5.53;3.50;;;12.40;99.90;;;12.05;98.70;97783.25;5011130;28;20389;-43
2022/06/14 01:03:04;;;;;;;7.70;3.15;;;12.30;99.90;;;11.83;99.11;97746.16;5014106;28;20485;-44
2022/06/14 01:08:23;;;;;;;;;;;12.30;99.90;;;11.98;99.90;97785.25;5012212;28;20144;-44
2022/06/14 01:10:49;;;;;;;6.43;3.10;;;12.30;99.90;;;11.98;99.78;97781.75;5005751;28;20798;-45
2022/06/14 01:13:17;;;;;;;5.95;3.05;;;12.30;99.90;;;11.97;99.25;97780.00;5008070;28;20228;-46
2022/06/14 01:15:44;;;;;;;5.97;3.40;;;12.30;99.90;;;11.91;99.04;97767.03;5005205;28;20309;-43
2022/06/14 01:18:13;;;;;;;4.53;3.20;;;12.30;99.90;;;11.97;99.23;97777.38;5007388;28;20036;-47
2022/06/14 01:20:40;;;;;;;6.40;3.20;;;12.30;99.90;;;11.93;98.93;97773.13;5026742;23;20048;-41
2022/06/14 01:23:10;;;;;;;6.72;3.25;;;12.30;99.90;;;11.92;99.04;97769.63;5016634;28;20057;-43
2022/06/14 01:25:41;;;;;;;6.13;2.92;;;12.20;99.90;;;11.86;99.13;97761.88;5014184;28;20045;-41
2022/06/14 01:28:08;;;;;;;5.10;3.00;;;12.20;99.90;;;11.91;99.24;97765.25;5016358;28;20037;-41
2022/06/14 01:30:48;;;;;;;9.40;2.78;;;12.20;99.90;;;11.91;99.51;97770.53;5015902;28;20111;-42
2022/06/14 01:33:25;;;;;;;5.78;3.08;;;12.20;99.90;;;11.90;99.70;97776.75;5025984;28;20036;-42
2022/06/14 01:35:57;;;;;;;6.00;3.17;;;12.20;99.90;;;11.86;99.63;97767.16;5010953;28;20034;-41
2022/06/14 01:38:24;;;;;;;5.60;3.00;;;12.20;99.90;;;11.85;99.67;97765.44;5009325;28;20389;-41
2022/06/14 01:41:03;;;;;;;5.65;2.72;;;12.20;99.90;;;11.84;99.75;97764.59;5025125;28;20026;-42
2022/06/14 01:44:13;;;;;;;7.22;3.75;;;12.10;99.90;;;11.82;100.00;97768.19;5011500;28;20064;-42
2022/06/14 01:47:00;;;;;;;8.70;3.45;;;12.10;99.90;;;11.80;99.84;97762.97;5006391;28;20095;-41
2022/06/14 01:53:32;;;;;;;5.53;3.05;;;12.10;99.90;;;11.77;99.46;97778.94;5013411;28;20092;-42
2022/06/14 01:56:08;;;;;;;6.45;3.42;;;12.10;99.90;;;11.74;100.00;97773.75;5010817;28;20068;-42
2022/06/14 01:58:45;;;;;;;4.65;3.20;;;12.00;99.90;;;11.69;100.00;97773.06;4995785;28;20048;-41
2022/06/14 02:01:26;;;;;;;6.43;3.25;;;12.00;99.90;;;11.69;99.77;97780.13;5011934;28;20049;-42
2022/06/14 02:04:41;;;;;;;9.55;3.72;;;12.00;99.90;;;11.67;100.00;97781.97;5011429;28;20457;-42
2022/06/14 02:07:42;;;;;;;6.50;3.28;;;11.90;99.90;;;11.61;100.00;97778.63;5011222;28;20048;-42
2022/06/14 02:10:37;;;;;;;4.28;3.13;;;11.90;99.90;;;11.59;100.00;97772.53;5014978;28;20030;-44
2022/06/14 02:13:19;;;;;;;5.13;3.20;;;11.90;99.90;;;11.58;99.97;97775.22;5012668;28;20072;-43
2022/06/14 02:15:53;;;;;;;4.50;3.20;;;11.90;99.90;;;11.58;100.00;97777.88;5011199;28;20029;-42
2022/06/14 02:18:52;;;;;;;6.18;3.33;;;11.90;99.90;;;11.54;100.00;97766.56;5026397;28;20026;-41
2022/06/14 02:21:48;;;;;;;5.30;2.88;;;11.80;99.90;;;11.51;100.00;97768.44;5007511;28;20033;-42
2022/06/14 02:24:40;;;;;;;5.28;3.35;;;11.80;99.90;;;11.46;100.00;97765.94;5011750;28;20030;-44
2022/06/14 02:27:33;;;;;;;7.00;3.78;;;11.80;99.90;;;11.43;100.00;97764.28;5016608;28;20182;-42
2022/06/14 02:30:23;;;;;;;5.85;3.28;;;11.70;99.90;;;11.40;100.00;97756.47;5013039;28;20033;-43
2022/06/14 02:33:01;;;;;;;7.20;3.70;;;11.70;99.90;;;11.35;100.00;97749.63;5013306;28;20037;-42
2022/06/14 02:35:44;;;;;;;6.25;3.88;;;11.70;99.90;;;11.42;100.00;97756.41;5011220;28;20068;-42
2022/06/14 02:38:15;;;;;;;6.20;3.50;;;11.70;99.90;;;11.34;100.00;97759.31;5024869;28;20030;-42
2022/06/14 02:41:41;;;;;;;6.00;3.63;;;11.70;99.90;;;11.31;100.00;97761.19;5026220;28;20447;-41
2022/06/14 02:44:35;;;;;;;5.55;3.30;;;11.60;99.90;;;11.25;100.00;97762.25;5011528;28;20083;-42
2022/06/14 02:47:23;;;;;;;9.45;3.63;;;11.60;99.90;;;11.24;100.00;97757.91;5021959;28;20693;-41
2022/06/14 02:50:01;;;;;;;7.53;3.55;;;11.60;99.90;;;11.24;100.00;97760.53;5014382;28;20037;-41
2022/06/14 02:52:38;;;;;;;6.05;3.80;;;11.50;99.90;;;11.23;100.00;97761.44;5026145;28;20566;-43
2022/06/14 02:55:21;;;;;;;6.80;3.83;;;11.50;99.90;;;11.24;100.00;97763.19;5007670;28;20386;-43
2022/06/14 02:58:10;;;;;;;8.45;3.33;;;11.50;99.90;;;11.24;100.00;97764.03;5006998;28;20037;-41
2022/06/14 03:00:47;;;;;;;6.95;3.45;;;11.50;99.90;;;11.23;100.00;97754.41;5007759;28;20069;-42
2022/06/14 03:03:20;;;;;;;5.07;3.05;;;11.50;99.90;;;11.24;100.00;97757.91;5010624;28;20033;-42
2022/06/14 03:05:50;;;;;;;6.32;3.53;;;11.50;99.90;;;11.24;100.00;97761.41;5031639;28;20037;-42
2022/06/14 03:08:20;;;;;;;7.75;3.35;;;11.50;99.90;;;11.20;100.00;97765.06;5018880;28;20489;-41
2022/06/14 03:11:31;;;;;;;7.00;3.47;;;11.50;99.90;;;11.23;100.00;97764.06;5033268;28;20475;-42
2022/06/14 03:14:05;;;;;;;6.60;3.72;;;11.50;99.90;;;11.21;100.00;97763.28;5018467;28;20060;-41
2022/06/14 03:16:54;;;;;;;7.85;4.00;;;11.50;99.90;;;11.06;100.00;97743.53;5017512;28;20040;-41
2022/06/14 03:19:30;;;;;;;8.20;4.18;;;11.50;99.90;;;11.15;100.00;97759.06;5013341;28;20043;-42
2022/06/14 03:22:39;;;;;;;8.68;3.88;;;11.50;99.90;;;11.11;100.00;97765.38;5017968;28;20029;-42
2022/06/14 03:25:15;;;;;;;6.70;3.63;;;11.50;99.90;;;11.09;100.00;97764.56;5014134;28;20029;-41
2022/06/14 03:27:57;;;;;;;5.90;3.47;;;11.50;99.90;;;11.07;100.00;97758.44;5011151;28;20080;-42
2022/06/14 03:30:32;;;;;;;6.38;3.85;;;11.50;99.90;;;11.05;100.00;97760.28;5018256;28;20119;-42
2022/06/14 03:33:10;;;;;;;6.60;4.05;;;11.40;99.90;;;11.04;100.00;97758.56;5031873;28;20048;-41
2022/06/14 03:35:50;;;;;;;6.30;3.78;;;11.40;99.90;;;11.00;100.00;97760.44;5013824;28;20209;-41
2022/06/14 03:38:35;;;;;;;5.15;3.60;;;11.30;99.90;;;10.95;100.00;97759.72;5013886;28;20041;-42
2022/06/14 03:41:02;;;;;;;7.15;4.07;;;11.30;99.90;;;10.94;100.00;97757.13;5032185;28;20037;-41
2022/06/14 03:43:31;;;;;;;9.73;3.88;;;11.30;99.90;;;10.88;100.00;97750.28;5017566;28;20028;-42
2022/06/14 03:46:11;;;;;;;7.93;4.05;;;11.30;99.90;;;10.93;100.00;97764.19;5017496;28;20045;-42
2022/06/14 03:48:40;;;;;;;5.20;3.75;;;11.20;99.90;;;10.93;100.00;97764.19;5018260;28;20042;-42
2022/06/14 03:51:57;;;;;;;5.28;3.63;;;11.30;99.90;;;10.95;100.00;97765.00;5017294;28;20060;-42
2022/06/14 03:54:39;;;;;;;5.60;3.45;;;11.30;99.90;;;10.99;100.00;97763.13;5018453;28;20035;-42
2022/06/14 03:57:42;;;;;;;9.80;4.07;;;11.30;99.90;;;11.03;100.00;97764.75;5010681;28;20029;-42
2022/06/14 04:00:36;;;;;;;7.28;3.58;;;11.30;99.90;;;11.08;100.00;97765.47;5013306;28;20041;-42
2022/06/14 04:03:15;;;;;;;7.07;3.38;;;11.40;99.90;;;11.11;100.00;97768.00;5013105;28;20069;-41
2022/06/14 04:06:11;;;;;;;10.68;3.58;;;11.40;99.90;;;11.06;100.00;97740.91;5014019;28;20041;-41
2022/06/14 04:09:04;;;;;;;5.63;3.58;;;11.50;99.90;;;11.30;100.00;97759.47;5027925;28;20041;-42
2022/06/14 04:11:57;;;;;;;8.70;3.75;;;11.60;99.90;;;11.37;100.00;97759.19;5019726;28;20030;-42
2022/06/14 04:14:39;;;;;;;;;;;11.70;99.90;;;11.46;100.00;97758.00;5019770;28;20040;-41
2022/06/14 04:17:33;;;;;;;9.60;3.95;;;11.70;99.90;;;11.55;100.00;97751.56;5016419;28;20377;-42
2022/06/14 04:20:25;;;;;;;7.45;3.92;;;11.80;99.90;;;11.64;100.00;97757.34;5012949;28;20037;-41
2022/06/14 04:23:16;;;;;;;7.85;4.50;;;11.90;99.90;;;11.74;100.00;97757.06;5033454;28;20037;-45
2022/06/14 04:26:24;;;;;;;6.68;4.25;;;12.00;99.90;;;11.83;100.00;97754.94;5014673;28;20042;-45
2022/06/14 04:29:09;;;;;;;7.10;3.85;;;12.10;99.90;;;11.94;100.00;97754.56;5017583;28;20030;-42
2022/06/14 04:31:45;;;;;;;7.75;3.85;;;12.20;99.90;;;12.08;100.00;97761.13;5017817;28;20165;-44
2022/06/14 04:34:31;;;;;;;6.35;4.25;;;12.30;99.90;;;12.15;100.00;97760.84;5022662;28;20033;-43
2022/06/14 04:37:13;;;;;;;6.30;3.72;;;12.40;99.90;;;12.27;100.00;97761.31;5019600;28;20073;-43
2022/06/14 04:39:47;;;;;;;6.57;4.13;;;12.50;99.90;;;12.32;100.00;97754.06;5015342;28;20466;-43
2022/06/14 04:42:23;;;;;;;7.63;3.70;;;12.60;99.90;;;12.48;100.00;97773.69;5018512;28;22398;-43
2022/06/14 04:45:11;;;;;;;5.18;3.70;;;12.70;99.90;;;12.58;100.00;97759.19;5013676;28;20037;-44
2022/06/14 04:47:56;;;;;;;7.63;4.07;;;12.90;99.90;;;12.70;100.00;97762.28;5032227;28;20053;-43
2022/06/14 04:50:38;;;;;;;8.20;4.13;;;13.00;99.90;;;12.86;100.00;97762.53;5018899;28;20033;-44
2022/06/14 04:53:23;;;;;;;6.13;3.50;;;13.10;99.90;;;12.97;100.00;97768.25;5018640;28;20032;-43
2022/06/14 04:55:58;;;;;;;8.60;4.18;;;13.20;99.90;;;13.15;99.22;97769.28;5016885;28;20037;-42
2022/06/14 04:58:32;;;;;;;5.25;3.15;;;13.30;99.90;;;13.77;96.08;97777.31;5015490;28;20540;-43
2022/06/14 05:01:03;;;;;;;9.10;3.15;;;13.60;99.90;;;14.42;93.12;97764.66;5013967;28;20147;-44
2022/06/14 05:03:37;;;;;;;6.78;2.90;;;14.00;99.90;;;15.35;87.73;97763.72;5014234;28;20040;-42
2022/06/14 05:06:11;;;;;;;5.10;3.05;;;14.60;99.90;;;16.23;79.49;97766.22;5011308;28;20039;-43
2022/06/14 05:08:43;;;;;;;6.57;3.22;;;15.20;99.90;;;17.17;71.42;97761.03;5031360;28;20075;-43
2022/06/14 05:11:50;;;;;;;6.15;3.20;;;15.90;99.90;;;18.09;66.54;97762.72;5018714;28;20055;-43
2022/06/14 05:14:43;;;;;;;5.35;2.55;;;16.60;99.90;;;19.21;61.63;97751.19;5015904;28;20061;-43
2022/06/14 05:17:25;;;;;;;7.40;2.85;;;17.40;99.90;;;20.39;55.08;97766.31;5017333;28;20132;-45
2022/06/14 05:20:20;;;;;;;8.45;2.80;;;18.30;99.90;;;21.22;51.26;97765.69;5032249;28;20057;-43
2022/06/14 05:22:58;;;;;;;7.40;2.53;;;19.00;99.90;;;21.87;48.96;97775.09;5019801;28;20029;-42
2022/06/14 05:25:35;;;;;;;5.40;2.65;;;19.50;99.90;;;22.54;47.34;97767.25;5020608;28;20465;-46
2022/06/14 05:28:08;;;;;;;5.80;3.03;;;20.10;99.90;;;22.94;44.83;97772.97;5014321;28;20697;-45
2022/06/14 05:30:55;;;;;;;4.03;2.40;;;20.60;97.50;;;22.99;44.09;97775.28;5031523;28;20026;-42
2022/06/14 05:34:19;;;;;;;9.50;3.40;;;20.90;96.20;;;22.36;44.59;97766.91;5032845;28;20029;-43
2022/06/14 05:36:55;;;;;;;6.72;3.00;;;20.80;94.80;;;21.50;45.80;97772.56;5011015;28;20049;-44
2022/06/14 05:39:35;;;;;;;6.22;3.25;;;20.30;94.40;;;20.53;47.83;97770.69;5019808;28;20099;-46
2022/06/14 05:42:18;;;;;;;6.43;2.97;;;19.80;94.70;;;19.74;50.03;97761.91;5018284;28;20041;-44
2022/06/14 05:44:48;;;;;;;8.18;2.63;;;19.30;95.80;;;19.21;51.74;97772.56;5010789;28;20034;-43
2022/06/14 05:47:26;;;;;;;6.10;2.88;;;18.80;96.40;;;18.75;54.39;97767.50;5019055;28;20459;-44
2022/06/14 05:49:58;;;;;;;5.03;2.63;;;18.50;97.40;;;18.41;57.46;97770.53;5015000;28;20072;-45
2022/06/14 05:52:35;;;;;;;7.30;2.90;;;18.20;98.50;;;18.20;58.03;97775.41;5017385;28;20535;-42
2022/06/14 05:55:14;;;;;;;6.28;2.85;;;18.00;98.70;;;18.01;58.92;97764.97;5016035;28;20060;-43
2022/06/14 05:58:23;;;;;;;6.90;2.97;;;17.90;99.10;;;17.69;60.79;97761.56;5012310;28;20029;-44
2022/06/14 06:01:06;;;;;;;6.88;3.20;;;17.60;99.50;;;17.57;64.04;97771.19;4975605;28;20035;-44
2022/06/14 06:03:43;;;;;;;7.63;3.00;;;17.50;99.90;;;17.51;66.22;97772.38;5012698;28;20041;-43
2022/06/14 06:06:16;;;;;;;10.05;3.08;;;17.50;99.90;;;17.44;67.28;97773.69;5013252;28;20192;-45
2022/06/14 06:08:51;;;;;;;5.97;3.13;;;17.50;99.90;;;17.22;66.08;97746.59;5013454;28;20116;-43
2022/06/14 06:11:32;;;;;;;8.57;3.00;;;17.40;99.90;;;17.38;66.49;97774.06;5026517;28;20036;-42
2022/06/14 06:14:15;;;;;;;5.90;2.80;;;17.40;99.90;;;17.39;67.93;97766.91;5015513;28;20477;-43
2022/06/14 06:17:04;;;;;;;9.85;3.75;;;17.40;99.90;;;17.31;66.78;97767.38;5030383;28;20041;-45
2022/06/14 06:19:38;;;;;;;7.95;3.20;;;17.40;99.90;;;17.35;67.18;97766.22;5018672;28;20029;-47
2022/06/14 06:22:32;;;;;;;6.68;3.65;;;17.50;99.90;;;17.41;67.64;97765.00;5013058;28;20116;-45
2022/06/14 06:25:04;;;;;;;6.82;3.63;;;17.50;99.90;;;17.54;68.37;97761.53;5019995;28;20044;-47
2022/06/14 06:27:47;;;;;;;7.90;3.35;;;17.50;99.90;;;17.64;67.58;97769.84;5008939;28;20122;-46
2022/06/14 06:30:27;;;;;;;4.85;3.15;;;17.60;99.90;;;17.70;67.33;97769.47;5011397;28;20112;-44
2022/06/14 06:32:54;;;;;;;6.30;3.22;;;17.70;99.90;;;17.78;67.39;97770.81;5019633;28;20032;-43
2022/06/14 06:35:30;;;;;;;7.07;3.35;;;17.80;99.90;;;17.88;67.07;97761.34;5026542;28;20535;-44
2022/06/14 06:38:20;;;;;;;8.00;3.95;;;17.90;99.90;;;17.89;65.48;97768.38;5008072;28;20038;-46
2022/06/14 06:43:46;;;;;;;6.25;3.92;;;18.00;99.90;;;17.98;62.11;97765.19;5003725;28;20052;-44
2022/06/14 06:46:14;;;;;;;9.48;3.50;;;18.10;99.90;;;18.07;58.95;97767.28;5006213;28;20114;-46
2022/06/14 06:48:46;;;;;;;6.18;3.75;;;18.10;99.50;;;17.96;59.20;97748.38;5023660;28;20408;-47
2022/06/14 06:51:18;;;;;;;10.27;4.72;;;18.20;99.30;;;18.17;60.61;97764.91;5008412;28;20064;-44
2022/06/14 06:53:59;;;;;;;;;;;18.30;99.70;;;18.28;60.20;97765.06;5008925;28;20780;-45
2022/06/14 06:56:37;;;;;;;6.35;3.88;;;18.40;99.70;;;18.33;60.26;97751.47;5012635;28;19925;-44
2022/06/14 06:59:23;;;;;;;7.32;3.53;;;18.50;99.60;;;18.47;60.01;97762.13;5009356;28;20036;-43
2022/06/14 07:01:52;;;;;;;11.25;3.83;;;18.60;99.80;;;18.56;59.75;97759.84;5005494;28;20458;-45
2022/06/14 07:07:23;;;;;;;7.38;3.80;;;18.80;98.20;;;18.65;55.86;97761.91;5007445;28;20718;-43
2022/06/14 07:09:57;;;;;;;10.35;3.78;;;18.80;97.90;;;18.72;55.33;97765.91;5010864;28;20036;-44
2022/06/14 07:12:37;;;;;;;7.93;4.05;;;18.80;97.50;;;18.83;55.15;97767.91;5011371;28;20056;-43
2022/06/14 07:15:11;;;;;;;10.30;3.75;;;18.90;97.50;;;18.80;54.70;97763.59;5006379;28;20457;-44
2022/06/14 07:18:02;;;;;;;8.82;3.60;;;18.90;97.50;;;18.72;56.11;97757.00;5010238;28;20042;-44
2022/06/14 07:21:00;;;;;;;6.72;3.50;;;18.90;96.80;;;18.84;55.44;97758.94;5015523;28;20092;-43
2022/06/14 07:26:15;;;;;;;11.63;4.10;;;19.00;96.50;;;19.01;53.94;97764.03;4973745;28;20058;-45
2022/06/14 07:29:14;;;;;;;10.38;4.53;;;19.10;96.40;;;19.17;55.41;97769.25;4995326;28;20042;-43
2022/06/14 07:31:59;;;;;;;8.32;3.38;;;19.20;97.20;;;19.17;55.75;97771.91;4982846;28;20457;-45
2022/06/14 07:34:26;;;;;;;7.68;3.90;;;19.30;97.00;;;19.23;54.85;97774.16;4984704;28;20585;-45
2022/06/14 07:37:02;;;;;;;6.10;4.00;;;19.30;96.60;;;19.31;54.41;97771.00;4991508;28;20045;-44
2022/06/14 07:40:19;;;;;;;8.35;3.88;;;19.40;96.40;;;19.41;54.15;97768.56;4993104;28;20066;-43
2022/06/14 07:43:03;;;;;;;8.52;3.83;;;19.50;96.30;;;19.55;53.92;97762.28;4987589;28;20030;-43
2022/06/14 07:45:43;;;;;;;6.85;4.25;;;19.70;96.10;;;19.57;51.36;97769.25;4995792;28;20023;-43
2022/06/14 07:48:18;;;;;;;10.73;3.53;;;19.70;95.10;;;19.62;53.50;97767.13;4996933;28;20038;-45
2022/06/14 07:50:55;;;;;;;8.55;4.03;;;19.70;95.50;;;19.69;51.48;97766.72;5003083;28;20113;-43
2022/06/14 07:53:40;;;;;;;6.53;4.10;;;19.80;95.20;;;19.71;50.52;97757.63;5003525;28;20124;-44
2022/06/14 07:56:20;;;;;;;12.23;4.57;;;19.90;94.00;;;19.88;50.95;97761.81;4998881;28;20064;-44
2022/06/14 07:58:56;;;;;;;8.75;3.95;;;20.00;94.40;;;19.93;49.38;97765.03;5017622;28;20025;-43
2022/06/14 08:01:41;;;;;;;6.15;3.50;;;20.00;93.50;;;19.97;48.78;97758.53;4996555;28;20026;-45
2022/06/14 08:04:21;;;;;;;5.72;3.17;;;20.10;92.80;;;20.02;47.96;97763.56;4999194;28;20036;-44
2022/06/14 08:07:05;;;;;;;13.77;5.15;;;20.10;92.10;;;20.10;48.55;97754.97;4992417;28;20044;-42
2022/06/14 08:09:43;;;;;;;8.20;3.70;;;20.20;92.60;;;20.17;48.09;97764.28;4991943;28;20528;-43
2022/06/14 08:12:37;;;;;;;5.57;2.88;;;20.20;92.30;;;20.23;48.14;97755.84;4997381;28;20049;-39
2022/06/14 08:15:38;;;;;;;7.25;3.78;;;20.30;92.00;;;20.32;48.20;97762.38;4996242;28;20586;-41
2022/06/14 08:18:17;;;;;;;7.90;3.75;;;20.40;92.60;;;20.30;46.35;97758.94;4993251;28;20050;-47
2022/06/14 08:20:48;;;;;;;7.07;3.50;;;20.40;90.70;;;20.26;47.58;97761.00;5004071;28;20030;-40
2022/06/14 08:23:45;;;;;;;9.30;3.43;;;20.40;91.00;;;20.29;47.21;97752.72;5001337;28;20025;-40
2022/06/14 08:26:34;;;;;;;5.85;3.70;;;20.40;91.10;;;20.30;47.54;97756.28;5006141;28;20091;-40
2022/06/14 08:29:05;;;;;;;8.50;3.85;;;20.50;91.10;;;20.34;46.83;97772.00;4995941;28;20088;-42
2022/06/14 08:31:40;;;;;;;9.77;4.22;;;20.50;90.90;;;20.39;46.75;97766.31;5010232;28;20306;-42
2022/06/14 08:34:25;;;;;;;12.95;3.38;;;20.50;90.70;;;20.55;46.66;97760.75;4999242;28;20449;-41
2022/06/14 08:37:18;;;;;;;8.98;3.13;;;20.60;90.90;;;20.64;46.17;97754.75;4988580;28;20155;-42
2022/06/14 08:40:10;;;;;;;5.13;2.85;;;20.70;90.50;;;20.78;46.70;97762.63;4995565;28;20034;-42
2022/06/14 08:42:48;;;;;;;7.83;3.30;;;20.90;90.70;;;20.88;46.01;97754.75;4995212;28;20033;-41
2022/06/14 08:45:39;;;;;;;5.70;3.13;;;21.00;90.00;;;20.92;45.47;97756.25;5000405;28;20030;-41
2022/06/14 08:48:20;;;;;;;7.78;3.58;;;21.00;89.30;;;20.93;45.41;97762.47;5000121;28;20064;-41
2022/06/14 08:51:20;;;;;;;6.70;3.08;;;21.00;88.10;;;20.94;45.08;97753.44;5001951;28;20046;-42
2022/06/14 08:54:12;;;;;;;7.90;3.25;;;21.00;88.90;;;20.82;44.62;97743.63;4961943;28;20447;-42
2022/06/14 08:57:03;;;;;;;7.50;3.10;;;21.00;86.90;;;20.91;46.13;97738.47;4986292;28;20060;-42
2022/06/14 09:00:00;;;;;;;7.78;2.92;;;21.00;89.10;;;21.06;46.29;97732.94;4986555;28;20226;-42
2022/06/14 09:03:23;;;;;;;8.75;3.50;;;21.10;89.10;;;21.11;45.72;97739.66;4990762;28;20490;-42
2022/06/14 09:06:18;;;;;;;5.43;2.77;;;21.20;87.70;;;21.10;41.88;97737.97;4958927;28;20633;-42
2022/06/14 09:09:12;;;;;;;6.63;2.60;;;21.20;83.00;;;21.08;43.46;97739.88;4994237;28;20037;-42
2022/06/14 09:12:14;;;;;;;9.20;3.00;;;21.20;82.70;;;21.06;44.03;97728.41;4989410;28;20107;-42
2022/06/14 09:14:54;;;;;;;5.68;2.78;;;21.20;85.20;;;21.15;44.20;97725.03;4976722;28;20218;-42
2022/06/14 09:17:56;;;;;;;6.97;3.33;;;21.30;86.30;;;21.20;45.89;97729.22;4988568;28;20095;-43
2022/06/14 09:20:48;;;;;;;6.85;2.80;;;21.30;85.10;;;21.26;44.84;97721.56;4994152;28;20029;-42
2022/06/14 09:23:44;;;;;;;8.02;3.28;;;21.30;84.40;;;21.34;48.04;97718.31;4997542;28;20049;-45
2022/06/14 09:26:34;;;;;;;6.47;3.10;;;21.40;90.30;;;21.45;45.01;97712.13;4998965;28;20481;-42
2022/06/14 09:29:44;;;;;;;6.07;3.17;;;21.50;86.10;;;21.45;45.52;97709.44;4991551;28;20037;-42
2022/06/14 09:33:09;;;;;;;8.43;3.17;;;21.50;86.50;;;21.52;43.07;97716.94;5007956;28;20104;-42
2022/06/14 09:35:48;;;;;;;5.85;2.90;;;21.60;84.50;;;21.52;42.20;97710.72;4991528;28;20237;-43
2022/06/14 09:38:51;;;;;;;7.68;3.60;;;21.60;82.10;;;21.53;42.12;97707.94;5007103;28;20033;-43
2022/06/14 09:41:54;;;;;;;4.70;2.70;;;21.60;81.20;;;21.64;41.73;97706.22;4996668;28;20033;-43
2022/06/14 09:44:20;;;;;;;5.65;2.75;;;21.70;81.30;;;21.68;41.33;97707.72;4993890;28;20034;-43
2022/06/14 09:47:16;;;;;;;4.38;2.42;;;21.80;79.40;;;21.72;41.41;97707.34;4994808;28;20409;-42
2022/06/14 09:50:23;;;;;;;5.32;2.60;;;21.80;79.00;;;21.82;42.71;97704.81;4990234;28;20036;-45
2022/06/14 09:53:13;;;;;;;8.40;3.15;;;21.90;79.90;;;21.85;42.24;97706.41;4991215;28;21353;-39
2022/06/14 09:56:10;;;;;;;5.60;2.80;;;22.00;80.50;;;21.95;43.03;97701.13;4992521;28;20141;-43
2022/06/14 09:59:13;;;;;;;4.35;2.72;;;22.00;81.10;;;22.06;42.70;97698.50;4991856;28;20256;-41
2022/06/14 10:01:59;;;;;;;6.85;3.58;;;22.10;80.50;;;22.17;43.39;97700.31;5006461;28;20389;-41
2022/06/14 10:05:05;;;;;;;6.95;3.25;;;22.20;81.00;;;22.21;42.61;97691.03;4997205;28;20038;-40
2022/06/14 10:08:03;;;;;;;11.60;3.70;;;22.30;80.60;;;22.15;43.26;97689.69;4990181;28;20728;-42
2022/06/14 10:10:46;;;;;;;6.47;3.47;;;22.30;81.60;;;22.03;42.15;97677.25;4990201;28;20081;-40
2022/06/14 10:13:48;;;;;;;10.60;5.68;;;22.20;79.20;;;21.99;42.53;97679.31;5010159;28;20084;-40
2022/06/14 10:16:34;;;;;;;8.45;4.28;;;22.10;79.30;;;21.91;42.55;97658.44;4982887;28;20059;-40
2022/06/14 10:19:26;;;;;;;5.68;2.88;;;22.10;79.60;;;22.12;40.91;97677.34;4992974;28;20088;-41
2022/06/14 10:22:13;;;;;;;7.75;3.30;;;22.20;78.80;;;22.15;41.03;97675.41;4994698;28;20040;-40
2022/06/14 10:24:59;;;;;;;6.82;2.97;;;22.20;77.10;;;22.02;39.47;97665.66;4990782;28;20076;-40
2022/06/14 10:28:23;;;;;;;4.57;3.13;;;22.20;74.20;;;21.97;40.67;97669.69;4989433;28;20026;-40
2022/06/14 10:31:26;;;;;;;5.47;2.80;;;22.10;75.50;;;22.00;40.56;97672.97;4984586;28;20052;-40
2022/06/14 10:34:20;;;;;;;5.65;2.72;;;22.10;76.60;;;22.03;40.29;97663.81;4992805;28;20029;-40
2022/06/14 10:37:29;;;;;;;7.15;2.90;;;22.10;75.70;;;21.97;39.88;97667.00;5002795;28;20041;-40
2022/06/14 10:40:28;;;;;;;6.70;2.70;;;22.10;74.50;;;21.97;40.23;97664.31;5008302;28;20035;-40
2022/06/14 10:43:11;;;;;;;6.40;3.22;;;22.10;75.10;;;22.05;40.53;97665.38;4994364;28;20032;-40
2022/06/14 10:45:43;;;;;;;5.97;3.10;;;22.20;75.40;;;22.11;40.46;97670.28;4989276;28;20076;-41
2022/06/14 10:48:36;;;;;;;7.45;2.72;;;22.20;74.90;;;22.12;39.33;97665.75;5008036;28;20091;-41
2022/06/14 10:51:40;;;;;;;5.43;3.08;;;22.30;74.80;;;22.17;39.78;97670.78;4990825;28;20066;-40
2022/06/14 10:54:24;;;;;;;7.05;3.40;;;22.30;74.80;;;22.07;40.50;97657.22;4991817;28;20062;-41
2022/06/14 10:57:21;;;;;;;4.90;3.20;;;22.20;73.70;;;22.13;40.83;97662.13;4987659;28;20109;-40
2022/06/14 11:00:08;;;;;;;6.22;3.00;;;22.20;76.60;;;22.25;41.92;97650.38;4992493;28;20026;-40
2022/06/14 11:03:17;;;;;;;7.13;3.10;;;22.30;77.10;;;22.26;40.62;97641.38;4991355;28;20454;-40
2022/06/14 11:06:17;;;;;;;3.75;2.38;;;22.40;75.40;;;22.36;41.16;97656.72;4994976;28;20033;-40
2022/06/14 11:09:06;;;;;;;4.78;2.60;;;22.40;75.80;;;22.45;40.93;97642.53;4986404;28;20521;-40
2022/06/14 11:12:02;;;;;;;5.43;2.85;;;22.60;75.40;;;22.52;40.07;97638.38;4991964;28;20080;-38
2022/06/14 11:14:42;;;;;;;4.22;2.53;;;22.70;75.40;;;22.56;40.24;97642.53;4997130;28;20059;-41
2022/06/14 11:17:43;;;;;;;8.00;2.90;;;22.70;73.50;;;22.68;41.10;97636.16;4995396;28;20057;-39
2022/06/14 11:20:47;;;;;;;3.95;2.80;;;22.80;75.40;;;22.77;39.89;97644.44;4993730;28;20091;-43
2022/06/14 11:23:32;;;;;;;7.88;2.83;;;22.90;72.90;;;22.83;38.26;97627.81;4990912;28;20042;-44
2022/06/14 11:26:11;;;;;;;5.78;2.85;;;23.00;70.90;;;22.79;36.73;97639.78;4988966;28;20116;-44
2022/06/14 11:29:07;;;;;;;6.45;2.47;;;23.00;67.50;;;22.80;38.38;97628.91;5009536;28;20045;-45
2022/06/14 11:31:42;;;;;;;3.78;2.72;;;23.00;70.00;;;22.83;38.07;97625.97;4989759;28;20117;-41
2022/06/14 11:34:42;;;;;;;4.68;2.90;;;23.00;69.90;;;22.87;39.00;97627.41;4992538;28;20038;-43
2022/06/14 11:37:54;;;;;;;7.28;3.38;;;23.00;71.40;;;22.90;39.30;97628.13;4989970;28;20121;-43
2022/06/14 11:40:32;;;;;;;7.00;2.80;;;23.00;71.30;;;22.93;38.14;97622.50;5004018;28;20030;-45
2022/06/14 11:43:28;;;;;;;5.63;3.17;;;23.10;69.80;;;23.01;38.95;97620.03;4994657;28;20038;-44
2022/06/14 11:46:38;;;;;;;5.50;2.80;;;23.10;70.60;;;23.08;37.51;97620.38;5004640;28;20030;-44